SCOT35 YBOK-YBOK
Flight info
| Callsign | SCOT35 |
|---|---|
| Flight time | 0h 0m |
| Altitude | 1000 |
| Route | DCT OK OK DCT |
| Aircraft | B06/L-SDFGRY/LB1 |
Departure
| Time | 2026-04-12 10:00 |
|---|---|
| Airport | Oakey Army Aviation Centre (YBOK) |
Arrival
| Time | 2026-04-12 10:01 |
|---|---|
| Airport | Oakey Army Aviation Centre (YBOK) |
| Time | Latitude | Longitude | Altitude | Speed | Heading |
|---|---|---|---|---|---|
| 2026-04-12 09:48 | -27.41307 | 151.73598 | 1337 ft | 0 kts | 278° |
| 2026-04-12 09:50 | -27.41307 | 151.73599 | 1337 ft | 0 kts | 278° |
| 2026-04-12 09:55 | -27.41304 | 151.73594 | 1357 ft | 1 kts | 261° |
| 2026-04-12 09:55 | -27.41306 | 151.73593 | 1361 ft | 1 kts | 239° |
| 2026-04-12 09:55 | -27.41307 | 151.73590 | 1363 ft | 0 kts | 238° |
| 2026-04-12 09:56 | -27.41311 | 151.73588 | 1361 ft | 0 kts | 240° |
| 2026-04-12 09:56 | -27.41308 | 151.73589 | 1371 ft | 1 kts | 241° |
| 2026-04-12 09:56 | -27.41290 | 151.73596 | 1360 ft | 4 kts | 84° |
| 2026-04-12 09:56 | -27.41318 | 151.73630 | 1378 ft | 11 kts | 135° |
| 2026-04-12 09:57 | -27.41337 | 151.73728 | 1353 ft | 13 kts | 63° |
| 2026-04-12 09:57 | -27.41279 | 151.73752 | 1352 ft | 10 kts | 319° |
| 2026-04-12 09:57 | -27.41254 | 151.73648 | 1364 ft | 19 kts | 278° |
| 2026-04-12 09:57 | -27.41237 | 151.73530 | 1356 ft | 13 kts | 284° |
| 2026-04-12 09:58 | -27.41201 | 151.73469 | 1353 ft | 13 kts | 348° |
| 2026-04-12 09:58 | -27.41117 | 151.73484 | 1348 ft | 9 kts | 47° |
| 2026-04-12 09:58 | -27.41068 | 151.73503 | 1348 ft | 5 kts | 293° |
| 2026-04-12 09:58 | -27.41062 | 151.73483 | 1335 ft | 0 kts | 284° |
| 2026-04-12 09:59 | -27.41041 | 151.73334 | 1379 ft | 41 kts | 285° |
| 2026-04-12 09:59 | -27.40972 | 151.72897 | 1487 ft | 68 kts | 277° |
| 2026-04-12 09:59 | -27.40895 | 151.72348 | 1726 ft | 70 kts | 265° |
| 2026-04-12 10:00 | -27.41200 | 151.72338 | 1811 ft | 78 kts | 135° |
| 2026-04-12 10:00 | -27.41430 | 151.73018 | 1601 ft | 103 kts | 106° |
| 2026-04-12 10:00 | -27.41570 | 151.73750 | 1835 ft | 94 kts | 111° |
| 2026-04-12 10:00 | -27.41528 | 151.74379 | 1978 ft | 71 kts | 19° |
| 2026-04-12 10:01 | -27.41146 | 151.74157 | 1784 ft | 66 kts | 275° |
| 2026-04-12 10:01 | -27.41096 | 151.73707 | 1550 ft | 40 kts | 280° |
| 2026-04-12 10:01 | -27.41065 | 151.73486 | 1338 ft | 15 kts | 281° |
| 2026-04-12 10:01 | -27.41061 | 151.73470 | 1337 ft | 5 kts | 283° |
| 2026-04-12 10:02 | -27.41025 | 151.73261 | 1427 ft | 46 kts | 274° |
| 2026-04-12 10:02 | -27.40959 | 151.72830 | 1584 ft | 65 kts | 285° |
| 2026-04-12 10:02 | -27.40982 | 151.72340 | 1846 ft | 62 kts | 210° |
| 2026-04-12 10:02 | -27.41369 | 151.72606 | 1906 ft | 88 kts | 114° |
| 2026-04-12 10:03 | -27.41500 | 151.73326 | 1925 ft | 94 kts | 102° |
| 2026-04-12 10:03 | -27.41631 | 151.74043 | 1927 ft | 92 kts | 90° |
| 2026-04-12 10:03 | -27.41258 | 151.74329 | 1722 ft | 71 kts | 309° |
| 2026-04-12 10:03 | -27.41115 | 151.73836 | 1510 ft | 56 kts | 268° |
| 2026-04-12 10:04 | -27.41072 | 151.73536 | 1368 ft | 19 kts | 274° |
| 2026-04-12 10:04 | -27.41065 | 151.73490 | 1336 ft | 0 kts | 282° |
| 2026-04-12 10:06 | -27.41049 | 151.73392 | 1381 ft | 36 kts | 275° |
| 2026-04-12 10:06 | -27.40985 | 151.73001 | 1458 ft | 63 kts | 275° |
| 2026-04-12 10:06 | -27.40905 | 151.72483 | 1673 ft | 68 kts | 275° |
| 2026-04-12 10:07 | -27.41216 | 151.72339 | 1897 ft | 74 kts | 155° |
| 2026-04-12 10:07 | -27.41503 | 151.72932 | 1901 ft | 97 kts | 108° |
| 2026-04-12 10:07 | -27.41614 | 151.73710 | 1876 ft | 98 kts | 102° |
| 2026-04-12 10:07 | -27.41973 | 151.74232 | 1809 ft | 84 kts | 144° |
| 2026-04-12 10:08 | -27.42066 | 151.74787 | 1681 ft | 65 kts | 34° |
| 2026-04-12 10:08 | -27.41763 | 151.74857 | 1566 ft | 42 kts | 325° |
| 2026-04-12 10:08 | -27.41520 | 151.74692 | 1437 ft | 37 kts | 323° |
| 2026-04-12 10:08 | -27.41377 | 151.74585 | 1350 ft | 13 kts | 288° |
| 2026-04-12 10:09 | -27.41344 | 151.74559 | 1362 ft | 4 kts | 265° |
| 2026-04-12 10:09 | -27.41290 | 151.74511 | 1389 ft | 13 kts | 250° |
| 2026-04-12 10:09 | -27.41218 | 151.74460 | 1384 ft | 11 kts | 262° |
| 2026-04-12 10:09 | -27.41239 | 151.74215 | 1440 ft | 44 kts | 264° |
| 2026-04-12 10:10 | -27.41267 | 151.73934 | 1412 ft | 28 kts | 262° |
| 2026-04-12 10:10 | -27.41313 | 151.73765 | 1380 ft | 19 kts | 258° |
| 2026-04-12 10:10 | -27.41317 | 151.73699 | 1359 ft | 1 kts | 252° |
| 2026-04-12 10:10 | -27.41318 | 151.73692 | 1344 ft | 0 kts | 257° |
| 2026-04-12 10:11 | -27.41319 | 151.73692 | 1343 ft | 0 kts | 265° |
| 2026-04-12 10:12 | -27.41318 | 151.73692 | 1343 ft | 0 kts | 265° |
| 2026-04-12 10:13 | -27.41319 | 151.73692 | 1343 ft | 0 kts | 265° |
| 2026-04-12 10:14 | -27.41319 | 151.73693 | 1343 ft | 0 kts | 265° |
| 2026-04-12 10:14 | -27.41318 | 151.73693 | 1343 ft | 0 kts | 265° |